Alpine, Wyoming
Current Conditions -  °F | °C
As of 3:55 AM on Sunday 23 Nov 2014 (Local Time) from KAFO Reporting Station
Overcast Overcast  
Wind Chill: 20°   Ceiling: 800
Heat Index: 28°   Visibility: 7mi
Dew Point: 25°   Wind: 8mph
Humidity: 86%   Direction: 360°N
Pressure: 29.88"   Gusts: NA
Location:  43.18°N, 111.03°W
Report Text: KAFO 231055Z AUTO 36007KT 7SM BKN008 OVC018 M02/M04 A2988 RMK AO2
Loading
Personal Weather Stations






























Interactive Weather Map New forecast layout! Learn more

10-Day Weather Forecast

Advertisements
Track Severe Weather on mobile